createdAt,value
2022-12-03T00:00:51.873Z,18.45
2022-12-03T00:01:54.693Z,18.83
2022-12-03T00:02:57.515Z,20.40
2022-12-03T00:04:00.306Z,20.13
2022-12-03T00:05:03.157Z,17.33
2022-12-03T00:06:05.973Z,18.13
2022-12-03T00:07:09.248Z,17.88
2022-12-03T00:08:11.992Z,17.30
2022-12-03T00:09:15.433Z,17.38
2022-12-03T00:10:18.385Z,18.30
2022-12-03T00:11:21.057Z,19.25
2022-12-03T00:12:23.635Z,17.65
2022-12-03T00:13:26.287Z,20.15
2022-12-03T00:14:28.895Z,19.15
2022-12-03T00:15:31.663Z,18.77
2022-12-03T00:16:34.377Z,17.77
2022-12-03T00:17:37.071Z,20.05
2022-12-03T00:18:39.734Z,21.30
2022-12-03T00:19:42.601Z,19.50
2022-12-03T00:20:45.212Z,18.05
2022-12-03T00:21:47.887Z,18.23
2022-12-03T00:22:50.980Z,17.88
2022-12-03T00:23:53.885Z,17.15
2022-12-03T00:24:56.657Z,18.80
2022-12-03T00:25:59.470Z,18.80
2022-12-03T00:27:02.535Z,18.15
2022-12-03T00:28:05.309Z,17.98
2022-12-03T00:29:08.082Z,17.73
2022-12-03T00:30:11.951Z,18.02
2022-12-03T00:31:14.869Z,16.25
2022-12-03T00:32:17.615Z,17.35
2022-12-03T00:33:21.491Z,17.95
2022-12-03T00:34:24.135Z,16.73
2022-12-03T00:35:26.891Z,17.65
2022-12-03T00:36:29.502Z,17.63
2022-12-03T00:37:32.081Z,18.75
2022-12-03T00:38:34.737Z,18.40
2022-12-03T00:39:37.363Z,16.40
2022-12-03T00:40:40.047Z,18.48
2022-12-03T00:41:42.651Z,17.27
2022-12-03T00:42:45.254Z,18.38
2022-12-03T00:43:48.151Z,17.13
2022-12-03T00:44:51.412Z,17.38
2022-12-03T00:45:54.336Z,18.00
2022-12-03T00:46:57.235Z,17.80
2022-12-03T00:47:59.984Z,19.48
2022-12-03T00:49:02.644Z,16.75
2022-12-03T00:50:06.164Z,17.30
2022-12-03T00:51:08.827Z,17.70
2022-12-03T00:52:11.489Z,18.00
2022-12-03T00:53:14.401Z,17.65
2022-12-03T00:54:17.290Z,17.27
2022-12-03T00:55:19.998Z,16.33
2022-12-03T00:56:22.617Z,16.45
2022-12-03T00:57:25.733Z,16.45
2022-12-03T00:58:28.478Z,16.88
2022-12-03T00:59:31.139Z,16.75
2022-12-03T01:00:33.786Z,17.38
2022-12-03T01:01:36.494Z,15.32
2022-12-03T01:02:39.107Z,15.82
2022-12-03T01:03:41.784Z,19.20
2022-12-03T01:04:44.610Z,16.77
2022-12-03T01:05:47.347Z,17.67
2022-12-03T01:06:50.035Z,16.13
2022-12-03T01:07:52.730Z,17.50
2022-12-03T01:08:56.511Z,16.55
2022-12-03T01:09:59.169Z,16.35
2022-12-03T01:11:01.826Z,18.23
2022-12-03T01:12:04.947Z,17.15
2022-12-03T01:13:07.649Z,16.58
2022-12-03T01:14:15.594Z,17.10
2022-12-03T01:15:18.333Z,17.02
2022-12-03T01:16:21.051Z,17.00
2022-12-03T01:17:23.738Z,15.98
2022-12-03T01:18:26.300Z,17.35
2022-12-03T01:19:29.374Z,17.00
2022-12-03T01:20:32.076Z,16.70
2022-12-03T01:21:34.937Z,17.80
2022-12-03T01:22:38.049Z,15.43
2022-12-03T01:23:40.992Z,15.38
2022-12-03T01:24:43.618Z,15.05
2022-12-03T01:25:46.199Z,17.13
2022-12-03T01:26:48.949Z,15.20
2022-12-03T01:27:51.552Z,16.38
2022-12-03T01:28:54.259Z,17.05
2022-12-03T01:29:56.854Z,16.08
2022-12-03T01:31:18.470Z,17.70
2022-12-03T01:32:21.310Z,16.48
2022-12-03T01:33:24.101Z,15.40
2022-12-03T01:34:26.843Z,15.30
2022-12-03T01:35:29.473Z,17.15
2022-12-03T01:36:34.252Z,15.48
2022-12-03T01:37:36.929Z,16.45
2022-12-03T01:38:39.605Z,16.15
2022-12-03T01:39:43.020Z,14.60
2022-12-03T01:40:45.703Z,13.23
2022-12-03T01:41:49.553Z,13.52
2022-12-03T01:42:52.222Z,15.07
2022-12-03T01:43:55.700Z,16.38
2022-12-03T01:44:59.680Z,15.13
2022-12-03T01:46:02.684Z,15.73
2022-12-03T01:47:07.014Z,16.45
2022-12-03T01:48:15.613Z,15.15
2022-12-03T01:49:24.066Z,14.45
2022-12-03T01:50:33.396Z,14.88
2022-12-03T01:51:36.216Z,14.80
2022-12-03T01:52:39.640Z,16.02
2022-12-03T01:53:42.536Z,15.38
2022-12-03T01:54:48.614Z,15.93
2022-12-03T01:55:51.278Z,15.48
2022-12-03T01:56:54.842Z,14.88
2022-12-03T01:57:59.818Z,15.82
2022-12-03T01:59:02.433Z,14.98
2022-12-03T02:00:05.868Z,15.75
2022-12-03T02:01:13.675Z,15.32
2022-12-03T02:02:30.525Z,14.10
2022-12-03T02:03:33.311Z,13.80
2022-12-03T02:04:36.151Z,14.75
2022-12-03T02:05:39.037Z,16.42
2022-12-03T02:06:43.050Z,14.95
2022-12-03T02:07:46.170Z,15.68
2022-12-03T02:08:49.530Z,15.13
2022-12-03T02:09:53.192Z,15.68
2022-12-03T02:10:57.048Z,15.27
2022-12-03T02:11:59.775Z,14.68
2022-12-03T02:13:09.163Z,14.10
2022-12-03T02:14:14.359Z,13.82
2022-12-03T02:15:17.131Z,14.85
2022-12-03T02:16:19.798Z,15.45
2022-12-03T02:17:22.650Z,15.68
2022-12-03T02:18:25.378Z,15.75
2022-12-03T02:19:29.861Z,14.57
2022-12-03T02:20:38.248Z,15.32
2022-12-03T02:21:54.815Z,15.00
2022-12-03T02:23:21.635Z,14.55
2022-12-03T02:24:30.456Z,14.98
2022-12-03T02:25:34.701Z,15.18
2022-12-03T02:26:37.458Z,15.25
2022-12-03T02:27:40.606Z,15.70
2022-12-03T02:28:43.368Z,15.45
2022-12-03T02:29:46.056Z,16.40
2022-12-03T02:30:48.672Z,15.00
2022-12-03T02:31:51.342Z,15.15
2022-12-03T02:32:55.111Z,13.07
2022-12-03T02:33:57.746Z,15.23
2022-12-03T02:35:00.394Z,12.77
2022-12-03T02:36:04.225Z,13.25
2022-12-03T02:37:09.501Z,14.38
2022-12-03T02:38:16.621Z,13.70
2022-12-03T02:39:19.211Z,16.67
2022-12-03T02:40:24.079Z,14.70
2022-12-03T02:41:45.628Z,15.02
2022-12-03T02:42:50.207Z,13.98
2022-12-03T02:43:52.924Z,13.93
2022-12-03T02:44:58.421Z,16.15
2022-12-03T02:46:05.237Z,15.02
2022-12-03T02:47:08.008Z,16.52
2022-12-03T02:48:16.099Z,15.50
2022-12-03T02:49:18.738Z,13.88
2022-12-03T02:50:25.978Z,14.10
2022-12-03T02:51:28.822Z,13.45
2022-12-03T02:52:31.698Z,13.60
2022-12-03T02:53:46.614Z,15.30
2022-12-03T02:54:49.695Z,13.68
2022-12-03T02:55:53.389Z,13.30
2022-12-03T02:56:56.061Z,12.77
2022-12-03T02:57:58.787Z,12.85
2022-12-03T02:59:03.849Z,12.93
2022-12-03T03:00:08.801Z,13.65
2022-12-03T03:01:11.942Z,13.10
2022-12-03T03:02:14.983Z,13.52
2022-12-03T03:03:18.508Z,14.20
2022-12-03T03:04:22.432Z,12.98
2022-12-03T03:05:25.506Z,13.13
2022-12-03T03:06:30.995Z,13.45
2022-12-03T03:07:34.156Z,12.10
2022-12-03T03:08:38.198Z,13.32
2022-12-03T03:09:41.272Z,12.88
2022-12-03T03:10:45.070Z,13.88
2022-12-03T03:11:49.091Z,12.98
2022-12-03T03:12:53.353Z,14.27
2022-12-03T03:13:56.352Z,13.15
2022-12-03T03:14:59.285Z,12.75
2022-12-03T03:16:03.714Z,13.15
2022-12-03T03:17:06.686Z,13.95
2022-12-03T03:18:10.924Z,13.18
2022-12-03T03:19:13.653Z,11.85
2022-12-03T03:20:16.333Z,13.40
2022-12-03T03:21:19.585Z,13.57
2022-12-03T03:22:22.296Z,14.20
2022-12-03T03:23:25.409Z,13.02
2022-12-03T03:24:28.214Z,12.23
2022-12-03T03:25:30.970Z,12.00
2022-12-03T03:26:35.124Z,14.00
2022-12-03T03:27:38.686Z,12.95
2022-12-03T03:28:45.671Z,13.02
2022-12-03T03:29:48.384Z,13.52
2022-12-03T03:30:51.636Z,14.05
2022-12-03T03:31:54.569Z,13.35
2022-12-03T03:32:57.763Z,13.38
2022-12-03T03:34:00.512Z,13.02
2022-12-03T03:35:05.512Z,13.77
2022-12-03T03:36:09.412Z,14.18
2022-12-03T03:37:12.074Z,12.60
2022-12-03T03:38:16.209Z,12.35
2022-12-03T03:39:18.845Z,13.00
2022-12-03T03:40:22.156Z,13.55
2022-12-03T03:41:26.060Z,14.18
2022-12-03T03:42:29.011Z,13.75
2022-12-03T03:43:34.905Z,12.45
2022-12-03T03:44:37.650Z,13.23
2022-12-03T03:45:40.349Z,13.25
2022-12-03T03:46:43.504Z,12.82
2022-12-03T03:47:46.291Z,12.73
2022-12-03T03:48:50.442Z,12.75
2022-12-03T03:49:53.474Z,15.70
2022-12-03T03:50:56.809Z,13.20
2022-12-03T03:51:59.495Z,13.02
2022-12-03T03:53:03.092Z,13.85
2022-12-03T03:54:06.237Z,15.50
2022-12-03T03:55:11.269Z,14.93
2022-12-03T03:56:17.224Z,14.35
2022-12-03T03:57:20.019Z,13.98
2022-12-03T03:58:22.737Z,13.73
2022-12-03T03:59:25.382Z,14.48
2022-12-03T04:00:28.085Z,14.05
2022-12-03T04:01:31.670Z,13.73
2022-12-03T04:02:34.940Z,12.65
2022-12-03T04:03:37.877Z,15.65
2022-12-03T04:04:40.673Z,12.85
2022-12-03T04:05:43.527Z,12.48
2022-12-03T04:06:46.773Z,14.23
2022-12-03T04:07:49.580Z,12.75
2022-12-03T04:08:52.375Z,12.50
2022-12-03T04:09:55.165Z,13.23
2022-12-03T04:11:16.023Z,14.02
2022-12-03T04:13:39.731Z,11.98
2022-12-03T04:14:42.353Z,12.48
2022-12-03T04:15:44.964Z,12.60
2022-12-03T04:16:47.637Z,13.07
2022-12-03T04:18:11.119Z,14.10
2022-12-03T04:19:13.758Z,13.35
2022-12-03T04:20:16.398Z,13.77
2022-12-03T04:21:39.896Z,13.68
2022-12-03T04:22:42.566Z,12.02
2022-12-03T04:23:45.155Z,12.55
2022-12-03T04:24:48.396Z,12.52
2022-12-03T04:26:09.282Z,11.55
2022-12-03T04:28:51.014Z,11.93
2022-12-03T04:29:53.780Z,12.52
2022-12-03T04:30:58.137Z,11.90
2022-12-03T04:32:19.206Z,13.13
2022-12-03T04:33:40.338Z,11.98
2022-12-03T04:35:01.786Z,11.38
2022-12-03T04:36:04.882Z,11.52
2022-12-03T04:37:07.686Z,13.93
2022-12-03T04:38:11.671Z,12.18
2022-12-03T04:39:14.332Z,14.32
2022-12-03T04:40:35.932Z,13.38
2022-12-03T04:41:38.717Z,12.18
2022-12-03T04:42:41.596Z,12.70
2022-12-03T04:44:02.873Z,12.35
2022-12-03T04:45:06.017Z,10.88
2022-12-03T04:46:08.712Z,13.63
2022-12-03T04:47:16.312Z,13.18
2022-12-03T04:48:19.068Z,12.00
2022-12-03T04:49:22.020Z,12.32
2022-12-03T04:50:24.724Z,14.10
2022-12-03T04:51:27.681Z,12.95
2022-12-03T04:52:30.288Z,11.43
2022-12-03T04:53:36.354Z,11.95
2022-12-03T04:54:39.548Z,11.50
2022-12-03T04:55:42.331Z,13.73
2022-12-03T04:56:45.162Z,12.57
2022-12-03T04:57:47.788Z,12.45
2022-12-03T04:58:50.506Z,13.02
2022-12-03T04:59:53.147Z,13.05
2022-12-03T05:00:55.780Z,14.27
2022-12-03T05:01:58.649Z,13.13
2022-12-03T05:03:01.564Z,11.90
2022-12-03T05:04:04.398Z,13.15
2022-12-03T05:05:07.629Z,11.68
2022-12-03T05:06:10.291Z,14.27
2022-12-03T05:07:12.979Z,12.15
2022-12-03T05:08:15.768Z,12.77
2022-12-03T05:09:18.437Z,14.25
2022-12-03T05:10:21.165Z,13.65
2022-12-03T05:11:23.786Z,12.70
2022-12-03T05:12:26.393Z,13.45
2022-12-03T05:13:28.980Z,12.70
2022-12-03T05:14:31.770Z,13.27
2022-12-03T05:15:34.543Z,11.13
2022-12-03T05:16:37.847Z,11.70
2022-12-03T05:17:40.530Z,11.90
2022-12-03T05:18:43.270Z,12.85
2022-12-03T05:20:04.474Z,13.38
2022-12-03T05:21:07.150Z,11.43
2022-12-03T05:22:09.781Z,12.48
2022-12-03T05:23:13.586Z,13.18
2022-12-03T05:24:16.268Z,11.63
2022-12-03T05:25:18.921Z,11.90
2022-12-03T05:26:21.679Z,11.98
2022-12-03T05:27:24.532Z,12.10
2022-12-03T05:28:27.150Z,12.43
2022-12-03T05:29:29.783Z,12.68
2022-12-03T05:30:32.759Z,13.02
2022-12-03T05:31:35.366Z,12.95
2022-12-03T05:32:38.570Z,12.02
2022-12-03T05:33:44.415Z,12.07
2022-12-03T05:34:47.260Z,12.70
2022-12-03T05:35:49.918Z,12.25
2022-12-03T05:36:52.537Z,13.32
2022-12-03T05:37:55.241Z,13.52
2022-12-03T05:38:57.955Z,11.40
2022-12-03T05:40:00.618Z,15.05
2022-12-03T05:41:03.416Z,14.10
2022-12-03T05:42:24.835Z,13.15
2022-12-03T05:43:27.505Z,12.88
2022-12-03T05:44:30.136Z,12.38
2022-12-03T05:45:38.123Z,13.82
2022-12-03T05:46:40.802Z,12.70
2022-12-03T05:47:43.463Z,12.38
2022-12-03T05:48:46.244Z,13.10
2022-12-03T05:49:48.870Z,13.05
2022-12-03T05:50:51.488Z,12.27
2022-12-03T05:51:58.431Z,11.70
2022-12-03T05:53:01.784Z,13.00
2022-12-03T05:54:04.456Z,15.23
2022-12-03T05:55:07.956Z,13.07
2022-12-03T05:56:10.576Z,13.20
2022-12-03T05:57:13.339Z,13.18
2022-12-03T05:58:16.097Z,12.98
2022-12-03T05:59:18.821Z,13.27
2022-12-03T06:00:26.445Z,12.98
2022-12-03T06:01:29.179Z,13.35
2022-12-03T06:02:32.346Z,13.23
2022-12-03T06:03:36.271Z,12.98
2022-12-03T06:04:39.243Z,13.75
2022-12-03T06:05:41.934Z,14.13
2022-12-03T06:06:44.684Z,13.30
2022-12-03T06:07:49.781Z,12.85
2022-12-03T06:08:52.502Z,12.65
2022-12-03T06:09:55.145Z,13.00
2022-12-03T06:10:58.058Z,13.68
2022-12-03T06:12:01.519Z,14.55
2022-12-03T06:13:04.144Z,12.65
2022-12-03T06:14:06.826Z,13.95
2022-12-03T06:15:10.605Z,13.80
2022-12-03T06:16:13.330Z,12.32
2022-12-03T06:17:16.149Z,12.88
2022-12-03T06:18:18.802Z,12.80
2022-12-03T06:19:21.384Z,14.30
2022-12-03T06:20:24.147Z,12.38
2022-12-03T06:21:26.755Z,13.10
2022-12-03T06:22:29.483Z,14.63
2022-12-03T06:23:32.132Z,13.20
2022-12-03T06:24:34.799Z,13.38
2022-12-03T06:25:37.432Z,13.52
2022-12-03T06:26:40.098Z,14.32
2022-12-03T06:27:42.973Z,13.40
2022-12-03T06:28:47.692Z,14.43
2022-12-03T06:29:50.506Z,14.70
2022-12-03T06:30:53.305Z,13.32
2022-12-03T06:31:56.006Z,13.20
2022-12-03T06:32:58.711Z,14.05
2022-12-03T06:34:01.447Z,12.57
2022-12-03T06:35:04.394Z,13.27
2022-12-03T06:36:07.444Z,13.45
2022-12-03T06:37:10.157Z,13.10
2022-12-03T06:38:12.837Z,12.88
2022-12-03T06:39:16.065Z,13.50
2022-12-03T06:40:18.977Z,14.25
2022-12-03T06:41:21.625Z,13.93
2022-12-03T06:42:24.724Z,13.75
2022-12-03T06:43:27.358Z,14.65
2022-12-03T06:44:29.967Z,13.43
2022-12-03T06:45:32.578Z,13.63
2022-12-03T06:46:35.356Z,14.18
2022-12-03T06:47:37.997Z,12.48
2022-12-03T06:48:40.666Z,13.88
2022-12-03T06:49:43.282Z,13.45
2022-12-03T06:50:45.930Z,14.07
2022-12-03T06:51:49.168Z,15.05
2022-12-03T06:52:51.955Z,13.75
2022-12-03T06:53:55.183Z,13.52
2022-12-03T06:54:57.795Z,13.60
2022-12-03T06:56:00.503Z,14.50
2022-12-03T06:57:03.443Z,15.65
2022-12-03T06:58:06.105Z,13.85
2022-12-03T06:59:10.535Z,14.38
2022-12-03T07:00:14.211Z,14.45
2022-12-03T07:01:16.891Z,13.63
2022-12-03T07:02:19.580Z,13.80
2022-12-03T07:03:22.399Z,14.00
2022-12-03T07:04:25.086Z,14.77
2022-12-03T07:05:27.701Z,14.95
2022-12-03T07:06:30.502Z,14.15
2022-12-03T07:07:33.237Z,13.50
2022-12-03T07:08:35.965Z,14.52
2022-12-03T07:09:38.620Z,12.98
2022-12-03T07:10:41.185Z,13.32
2022-12-03T07:11:43.817Z,12.82
2022-12-03T07:12:46.550Z,13.98
2022-12-03T07:13:49.181Z,13.00
2022-12-03T07:14:52.172Z,13.30
2022-12-03T07:15:55.333Z,14.35
2022-12-03T07:16:57.956Z,13.40
2022-12-03T07:18:00.666Z,13.38
2022-12-03T07:19:04.730Z,13.95
2022-12-03T07:20:08.005Z,13.57
2022-12-03T07:21:10.702Z,14.55
2022-12-03T07:22:13.398Z,13.60
2022-12-03T07:23:15.956Z,14.65
2022-12-03T07:24:18.649Z,14.57
2022-12-03T07:25:23.396Z,14.50
2022-12-03T07:26:26.542Z,14.32
2022-12-03T07:27:29.276Z,17.08
2022-12-03T07:28:31.897Z,14.30
2022-12-03T07:29:34.478Z,14.40
2022-12-03T07:30:37.250Z,14.57
2022-12-03T07:31:39.907Z,14.38
2022-12-03T07:32:42.690Z,14.75
2022-12-03T07:33:45.402Z,15.43
2022-12-03T07:34:48.000Z,15.48
2022-12-03T07:35:50.784Z,15.50
2022-12-03T07:36:53.441Z,14.20
2022-12-03T07:37:56.057Z,14.65
2022-12-03T07:38:58.744Z,15.70
2022-12-03T07:40:01.336Z,15.27
2022-12-03T07:41:04.098Z,16.60
2022-12-03T07:42:06.793Z,15.02
2022-12-03T07:43:09.448Z,14.68
2022-12-03T07:44:14.825Z,14.27
2022-12-03T07:45:17.693Z,14.05
2022-12-03T07:46:20.430Z,14.05
2022-12-03T07:47:23.174Z,15.52
2022-12-03T07:48:25.796Z,16.10
2022-12-03T07:49:28.402Z,16.02
2022-12-03T07:50:31.050Z,14.60
2022-12-03T07:51:36.338Z,14.82
2022-12-03T07:52:39.331Z,15.38
2022-12-03T07:53:42.069Z,15.30
2022-12-03T07:54:44.849Z,16.40
2022-12-03T07:55:47.491Z,15.23
2022-12-03T07:56:50.404Z,14.95
2022-12-03T07:57:54.208Z,14.07
2022-12-03T07:58:56.783Z,15.23
2022-12-03T07:59:59.365Z,15.00
2022-12-03T08:01:02.070Z,16.23
2022-12-03T08:02:05.071Z,15.10
2022-12-03T08:03:07.766Z,16.73
2022-12-03T08:04:12.976Z,15.65
2022-12-03T08:05:15.692Z,16.83
2022-12-03T08:06:18.387Z,15.50
2022-12-03T08:07:20.963Z,17.08
2022-12-03T08:08:23.701Z,16.02
2022-12-03T08:09:26.559Z,16.33
2022-12-03T08:10:29.279Z,16.13
2022-12-03T08:11:33.170Z,16.55
2022-12-03T08:12:40.629Z,16.52
2022-12-03T08:13:43.348Z,16.17
2022-12-03T08:14:45.922Z,15.48
2022-12-03T08:15:48.640Z,15.93
2022-12-03T08:16:51.452Z,15.90
2022-12-03T08:18:00.510Z,15.80
2022-12-03T08:19:09.259Z,15.48
2022-12-03T08:20:19.555Z,15.88
2022-12-03T08:21:23.393Z,16.50
2022-12-03T08:22:26.671Z,15.38
2022-12-03T08:23:29.292Z,16.77
2022-12-03T08:24:32.063Z,15.65
2022-12-03T08:25:34.663Z,15.90
2022-12-03T08:26:37.309Z,16.17
2022-12-03T08:27:39.930Z,16.75
2022-12-03T08:28:43.018Z,15.80
2022-12-03T08:29:46.295Z,16.35
2022-12-03T08:31:12.438Z,16.10
2022-12-03T08:32:15.327Z,15.60
2022-12-03T08:33:27.869Z,14.60
2022-12-03T08:34:35.977Z,15.88
2022-12-03T08:35:38.807Z,15.65
2022-12-03T08:36:44.621Z,16.23
2022-12-03T08:37:58.566Z,14.40
2022-12-03T08:39:14.770Z,14.80
2022-12-03T08:40:23.731Z,15.93
2022-12-03T08:43:14.439Z,13.45
2022-12-03T08:44:35.057Z,15.77
2022-12-03T08:45:40.722Z,16.10
2022-12-03T08:46:43.543Z,15.50
2022-12-03T08:47:46.563Z,14.35
2022-12-03T08:48:49.784Z,15.63
2022-12-03T08:50:20.957Z,15.90
2022-12-03T08:51:27.774Z,14.95
2022-12-03T08:52:34.740Z,14.10
2022-12-03T08:53:43.100Z,16.15
2022-12-03T08:54:53.772Z,15.15
2022-12-03T08:57:02.050Z,14.02
2022-12-03T08:58:18.522Z,14.63
2022-12-03T08:59:26.149Z,14.15
2022-12-03T09:00:28.935Z,14.93
2022-12-03T09:04:46.067Z,14.93
2022-12-03T09:05:49.090Z,14.95
2022-12-03T09:06:52.825Z,16.35
2022-12-03T09:07:58.308Z,16.75
2022-12-03T09:09:06.512Z,16.13
2022-12-03T09:10:09.832Z,15.65
2022-12-03T09:11:12.720Z,17.13
2022-12-03T09:12:15.580Z,14.98
2022-12-03T09:13:18.290Z,15.65
2022-12-03T09:14:23.839Z,16.25
2022-12-03T09:15:26.617Z,15.90
2022-12-03T09:16:29.325Z,15.80
2022-12-03T09:17:32.011Z,16.80
2022-12-03T09:18:34.683Z,16.17
2022-12-03T09:19:42.727Z,16.85
2022-12-03T09:20:48.255Z,16.52
2022-12-03T09:21:51.119Z,17.48
2022-12-03T09:22:54.005Z,15.48
2022-12-03T09:23:56.746Z,16.15
2022-12-03T09:24:59.523Z,15.35
2022-12-03T09:26:02.189Z,16.40
2022-12-03T09:27:04.782Z,15.35
2022-12-03T09:28:07.445Z,16.05
2022-12-03T09:29:12.469Z,16.95
2022-12-03T09:30:15.738Z,16.65
2022-12-03T09:31:18.522Z,14.77
2022-12-03T09:32:21.397Z,16.38
2022-12-03T09:33:24.071Z,16.67
2022-12-03T09:34:26.885Z,16.20
2022-12-03T09:35:29.682Z,16.17
2022-12-03T09:36:32.390Z,17.42
2022-12-03T09:37:35.120Z,16.02
2022-12-03T09:38:38.602Z,15.95
2022-12-03T09:39:43.713Z,15.45
2022-12-03T09:40:46.374Z,15.75
2022-12-03T09:41:49.853Z,15.90
2022-12-03T09:42:53.342Z,14.27
2022-12-03T09:44:05.290Z,14.32
2022-12-03T09:45:10.925Z,16.50
2022-12-03T09:46:13.821Z,16.77
2022-12-03T09:47:16.843Z,15.52
2022-12-03T09:48:21.348Z,14.68
2022-12-03T09:49:24.070Z,15.32
2022-12-03T09:50:27.807Z,16.10
2022-12-03T09:51:35.555Z,16.65
2022-12-03T09:52:38.369Z,16.52
2022-12-03T09:53:41.635Z,16.02
2022-12-03T09:54:47.586Z,14.98
2022-12-03T09:55:50.491Z,15.68
2022-12-03T09:56:54.831Z,15.85
2022-12-03T09:57:57.896Z,17.20
2022-12-03T09:59:00.752Z,16.30
2022-12-03T10:00:13.905Z,18.17
2022-12-03T10:01:17.081Z,16.33
2022-12-03T10:02:25.534Z,16.00
2022-12-03T10:03:30.696Z,13.52
2022-12-03T10:04:33.437Z,14.98
2022-12-03T10:05:36.303Z,16.10
2022-12-03T10:06:44.130Z,16.00
2022-12-03T10:07:49.580Z,16.33
2022-12-03T10:08:54.836Z,16.88
2022-12-03T10:09:57.559Z,17.80
2022-12-03T10:11:00.306Z,15.55
2022-12-03T10:12:03.487Z,16.52
2022-12-03T10:13:07.632Z,15.40
2022-12-03T10:14:12.666Z,15.18
2022-12-03T10:15:18.383Z,16.63
2022-12-03T10:16:21.578Z,16.30
2022-12-03T10:17:24.545Z,16.88
2022-12-03T10:18:32.774Z,16.13
2022-12-03T10:19:39.758Z,14.80
2022-12-03T10:20:42.480Z,15.48
2022-12-03T10:21:45.202Z,15.48
2022-12-03T10:22:49.277Z,16.40
2022-12-03T10:24:29.016Z,15.95
2022-12-03T10:25:32.333Z,16.20
2022-12-03T10:26:40.676Z,17.33
2022-12-03T10:27:55.972Z,16.05
2022-12-03T10:28:58.809Z,16.42
2022-12-03T10:31:44.819Z,16.33
2022-12-03T10:32:49.867Z,16.48
2022-12-03T10:33:58.242Z,15.77
2022-12-03T10:35:14.127Z,16.02
2022-12-03T10:36:25.315Z,16.08
2022-12-03T10:37:28.022Z,16.63
2022-12-03T10:38:30.690Z,16.88
2022-12-03T10:39:33.312Z,17.27
2022-12-03T10:40:38.548Z,17.75
2022-12-03T10:41:42.923Z,16.73
2022-12-03T10:42:45.568Z,19.13
2022-12-03T10:43:48.331Z,16.10
2022-12-03T10:45:08.212Z,17.55
2022-12-03T10:46:12.791Z,18.55
2022-12-03T10:47:16.139Z,16.50
2022-12-03T10:48:27.538Z,16.67
2022-12-03T10:49:30.391Z,19.38
2022-12-03T10:50:33.940Z,17.52
2022-12-03T10:51:38.021Z,17.70
2022-12-03T10:52:40.812Z,18.25
2022-12-03T10:53:43.610Z,16.92
2022-12-03T10:54:46.389Z,16.50
2022-12-03T10:55:51.419Z,17.83
2022-12-03T10:56:54.293Z,16.58
2022-12-03T10:57:57.634Z,18.10
2022-12-03T10:59:01.316Z,16.73
2022-12-03T11:00:05.927Z,18.42
2022-12-03T11:01:19.109Z,17.33
2022-12-03T11:03:44.663Z,17.00
2022-12-03T11:04:54.012Z,17.92
2022-12-03T11:05:58.023Z,17.17
2022-12-03T11:08:35.923Z,20.67
2022-12-03T11:09:38.715Z,19.20
2022-12-03T11:10:41.928Z,17.67
2022-12-03T11:13:32.276Z,17.67
2022-12-03T11:15:09.192Z,17.45
2022-12-03T11:16:12.501Z,17.17
2022-12-03T11:17:44.176Z,18.88
2022-12-03T11:18:49.900Z,18.73
2022-12-03T11:19:53.694Z,18.02
2022-12-03T11:21:01.703Z,18.50
2022-12-03T11:22:04.975Z,19.08
2022-12-03T11:23:12.125Z,19.27
2022-12-03T11:24:21.443Z,18.63
2022-12-03T11:25:27.233Z,18.00
2022-12-03T11:26:29.900Z,18.85
2022-12-03T11:27:33.025Z,18.20
2022-12-03T11:28:37.853Z,18.33
2022-12-03T11:29:48.212Z,18.02
2022-12-03T11:30:51.072Z,19.90
2022-12-03T11:34:51.925Z,18.48
2022-12-03T11:36:03.955Z,17.77
2022-12-03T11:37:12.682Z,18.23
2022-12-03T11:38:46.175Z,18.02
2022-12-03T11:40:25.955Z,18.52
2022-12-03T11:41:33.766Z,17.13
2022-12-03T11:42:40.790Z,18.25
2022-12-03T11:43:52.611Z,18.60
2022-12-03T11:45:04.767Z,19.27
2022-12-03T11:46:10.668Z,18.77
2022-12-03T11:47:16.654Z,18.60
2022-12-03T11:48:19.544Z,19.75
2022-12-03T11:49:23.662Z,19.17
2022-12-03T11:50:45.181Z,19.88
2022-12-03T11:51:48.027Z,19.73
2022-12-03T11:52:56.441Z,19.67
2022-12-03T11:54:00.216Z,18.63
2022-12-03T11:55:35.125Z,19.05
2022-12-03T11:56:45.327Z,18.60
2022-12-03T11:57:47.978Z,18.85
2022-12-03T11:59:01.480Z,20.33
2022-12-03T12:00:15.907Z,18.58
2022-12-03T12:01:38.120Z,18.98
2022-12-03T12:02:50.629Z,19.65
2022-12-03T12:03:53.517Z,19.05
2022-12-03T12:07:39.295Z,19.45
2022-12-03T12:09:00.763Z,20.85
2022-12-03T12:10:04.028Z,18.85
2022-12-03T12:11:31.263Z,18.73
2022-12-03T12:12:53.376Z,19.13
2022-12-03T12:13:58.909Z,20.42
2022-12-03T12:17:03.361Z,18.90
2022-12-03T12:18:51.131Z,19.75
2022-12-03T12:20:27.124Z,18.25
2022-12-03T12:21:49.451Z,19.70
2022-12-03T12:22:54.865Z,19.83
2022-12-03T12:23:57.521Z,19.98
2022-12-03T12:25:01.468Z,20.58
2022-12-03T12:26:07.569Z,20.60
2022-12-03T12:27:12.253Z,19.83
2022-12-03T12:28:15.312Z,20.85
2022-12-03T12:29:18.067Z,21.05
2022-12-03T12:30:22.112Z,20.88
2022-12-03T12:31:24.885Z,20.98
2022-12-03T12:32:28.793Z,20.33
2022-12-03T12:33:33.296Z,20.40
2022-12-03T12:34:40.397Z,21.25
2022-12-03T12:35:43.117Z,21.90
2022-12-03T12:36:45.890Z,20.13
2022-12-03T12:37:59.660Z,21.88
2022-12-03T12:39:13.156Z,20.95
2022-12-03T12:40:18.157Z,21.77
2022-12-03T12:41:22.151Z,22.85
2022-12-03T12:42:30.175Z,21.23
2022-12-03T12:43:34.991Z,21.05
2022-12-03T12:44:37.766Z,21.05
2022-12-03T12:45:42.504Z,20.92
2022-12-03T12:46:48.408Z,19.40
2022-12-03T12:48:01.973Z,19.92
2022-12-03T12:49:14.830Z,21.35
2022-12-03T12:50:18.880Z,20.60
2022-12-03T12:52:58.533Z,20.73
2022-12-03T12:54:02.356Z,21.45
2022-12-03T12:55:10.164Z,21.73
2022-12-03T12:56:32.765Z,21.65
2022-12-03T12:57:35.649Z,20.92
2022-12-03T12:58:39.544Z,22.13
2022-12-03T12:59:42.961Z,21.70
2022-12-03T13:01:12.770Z,20.98
2022-12-03T13:02:41.213Z,19.67
2022-12-03T13:03:44.145Z,21.33
2022-12-03T13:06:09.627Z,22.45
2022-12-03T13:07:12.392Z,22.80
2022-12-03T13:08:25.995Z,21.48
2022-12-03T13:09:30.332Z,21.27
2022-12-03T13:10:42.061Z,20.85
2022-12-03T13:12:02.044Z,21.70
2022-12-03T13:13:30.608Z,21.03
2022-12-03T13:14:37.563Z,20.45
2022-12-03T13:15:50.835Z,21.30
2022-12-03T13:16:55.466Z,20.65
2022-12-03T13:17:58.308Z,21.55
2022-12-03T13:19:01.648Z,20.67
2022-12-03T13:22:45.663Z,20.02
2022-12-03T13:25:59.372Z,19.73
2022-12-03T13:27:07.080Z,20.08
2022-12-03T13:28:09.959Z,21.42
2022-12-03T13:29:17.004Z,20.13
2022-12-03T13:30:24.773Z,21.58
2022-12-03T13:31:33.297Z,22.45
2022-12-03T13:32:40.401Z,21.65
2022-12-03T13:33:43.311Z,19.50
2022-12-03T13:34:46.780Z,19.88
2022-12-03T13:35:52.665Z,23.02
2022-12-03T13:36:58.477Z,21.85
2022-12-03T13:38:02.559Z,22.17
2022-12-03T13:39:21.712Z,22.48
2022-12-03T13:40:25.112Z,22.58
2022-12-03T13:41:47.136Z,23.02
2022-12-03T13:42:50.046Z,21.40
2022-12-03T13:43:53.074Z,23.27
2022-12-03T13:44:56.952Z,22.58
2022-12-03T13:47:23.128Z,22.85
2022-12-03T13:48:30.672Z,21.52
2022-12-03T13:49:34.959Z,19.70
2022-12-03T13:50:44.971Z,22.42
2022-12-03T13:51:48.166Z,21.17
2022-12-03T13:54:19.066Z,21.00
2022-12-03T13:55:30.090Z,22.02
2022-12-03T13:56:33.295Z,20.83
2022-12-03T13:57:36.099Z,21.52
2022-12-03T13:58:38.712Z,21.73
2022-12-03T13:59:41.493Z,21.92
2022-12-03T14:00:46.051Z,22.48
2022-12-03T14:01:50.646Z,21.65
2022-12-03T14:02:53.941Z,21.33
2022-12-03T14:03:57.637Z,22.90
2022-12-03T14:05:00.964Z,22.70
2022-12-03T14:06:04.096Z,22.48
2022-12-03T14:07:06.977Z,23.67
2022-12-03T14:08:09.707Z,21.58
2022-12-03T14:09:12.486Z,23.63
2022-12-03T14:10:16.377Z,22.63
2022-12-03T14:11:37.969Z,21.88
2022-12-03T14:12:40.737Z,21.15
2022-12-03T14:13:43.455Z,20.88
2022-12-03T14:14:46.120Z,21.50
2022-12-03T14:15:49.184Z,23.08
2022-12-03T14:16:56.710Z,24.25
2022-12-03T14:18:07.811Z,20.38
2022-12-03T14:19:10.634Z,24.75
2022-12-03T14:20:14.962Z,21.15
2022-12-03T14:21:17.878Z,22.35
2022-12-03T14:22:23.677Z,22.30
2022-12-03T14:23:26.575Z,22.52
2022-12-03T14:24:29.287Z,22.42
2022-12-03T14:25:43.033Z,21.88
2022-12-03T14:26:50.300Z,20.95
2022-12-03T14:27:55.413Z,21.17
2022-12-03T14:28:58.009Z,23.05
2022-12-03T14:30:00.895Z,21.60
2022-12-03T14:31:03.556Z,22.63
2022-12-03T14:32:06.373Z,23.00
2022-12-03T14:33:09.123Z,22.40